sensor_id;sensor_type;location;lat;lon;timestamp;P1;P2;P0
55686;PMS5003;41911;52.362;4.978;2022-10-16T00:00:08;3.0;2.0;
55686;PMS5003;41911;52.362;4.978;2022-10-16T00:00:41;3.0;3.0;
55686;PMS5003;41911;52.362;4.978;2022-10-16T00:01:14;3.0;3.0;
55686;PMS5003;41911;52.362;4.978;2022-10-16T00:01:46;4.0;3.0;
55686;PMS5003;41911;52.362;4.978;2022-10-16T00:02:17;4.0;3.0;
55686;PMS5003;41911;52.362;4.978;2022-10-16T00:02:48;4.0;4.0;
55686;PMS5003;41911;52.362;4.978;2022-10-16T00:03:19;3.0;3.0;
55686;PMS5003;41911;52.362;4.978;2022-10-16T00:03:50;4.0;3.0;
55686;PMS5003;41911;52.362;4.978;2022-10-16T00:04:22;4.0;4.0;
55686;PMS5003;41911;52.362;4.978;2022-10-16T00:04:53;4.0;3.0;
55686;PMS5003;41911;52.362;4.978;2022-10-16T00:05:24;4.0;4.0;
55686;PMS5003;41911;52.362;4.978;2022-10-16T00:05:58;4.0;4.0;
55686;PMS5003;41911;52.362;4.978;2022-10-16T00:06:30;3.0;3.0;
55686;PMS5003;41911;52.362;4.978;2022-10-16T00:07:01;3.0;3.0;
55686;PMS5003;41911;52.362;4.978;2022-10-16T00:07:37;4.0;3.0;
55686;PMS5003;41911;52.362;4.978;2022-10-16T00:08:09;4.0;4.0;
55686;PMS5003;41911;52.362;4.978;2022-10-16T00:08:41;3.0;3.0;
55686;PMS5003;41911;52.362;4.978;2022-10-16T00:09:13;4.0;3.0;
55686;PMS5003;41911;52.362;4.978;2022-10-16T00:09:44;4.0;4.0;
55686;PMS5003;41911;52.362;4.978;2022-10-16T00:10:16;6.0;5.0;
55686;PMS5003;41911;52.362;4.978;2022-10-16T00:10:47;3.0;3.0;
55686;PMS5003;41911;52.362;4.978;2022-10-16T00:11:19;5.0;5.0;
55686;PMS5003;41911;52.362;4.978;2022-10-16T00:11:52;3.0;3.0;
55686;PMS5003;41911;52.362;4.978;2022-10-16T00:12:23;3.0;3.0;
55686;PMS5003;41911;52.362;4.978;2022-10-16T00:12:54;4.0;4.0;
55686;PMS5003;41911;52.362;4.978;2022-10-16T00:13:25;4.0;4.0;
55686;PMS5003;41911;52.362;4.978;2022-10-16T00:13:57;7.0;6.0;
55686;PMS5003;41911;52.362;4.978;2022-10-16T00:14:29;4.0;4.0;
55686;PMS5003;41911;52.362;4.978;2022-10-16T00:15:00;4.0;4.0;
55686;PMS5003;41911;52.362;4.978;2022-10-16T00:15:32;4.0;4.0;
55686;PMS5003;41911;52.362;4.978;2022-10-16T00:16:04;5.0;5.0;
55686;PMS5003;41911;52.362;4.978;2022-10-16T00:16:35;3.0;3.0;
55686;PMS5003;41911;52.362;4.978;2022-10-16T00:17:06;5.0;5.0;
55686;PMS5003;41911;52.362;4.978;2022-10-16T00:17:37;3.0;3.0;
55686;PMS5003;41911;52.362;4.978;2022-10-16T00:18:09;5.0;5.0;
55686;PMS5003;41911;52.362;4.978;2022-10-16T00:18:41;4.0;4.0;
55686;PMS5003;41911;52.362;4.978;2022-10-16T00:19:12;5.0;5.0;
55686;PMS5003;41911;52.362;4.978;2022-10-16T00:19:43;6.0;4.0;
55686;PMS5003;41911;52.362;4.978;2022-10-16T00:20:14;5.0;5.0;
55686;PMS5003;41911;52.362;4.978;2022-10-16T00:20:45;3.0;3.0;
55686;PMS5003;41911;52.362;4.978;2022-10-16T00:21:17;3.0;3.0;
55686;PMS5003;41911;52.362;4.978;2022-10-16T00:21:50;4.0;4.0;
55686;PMS5003;41911;52.362;4.978;2022-10-16T00:22:21;7.0;4.0;
55686;PMS5003;41911;52.362;4.978;2022-10-16T00:22:52;3.0;3.0;
55686;PMS5003;41911;52.362;4.978;2022-10-16T00:23:23;4.0;3.0;
55686;PMS5003;41911;52.362;4.978;2022-10-16T00:23:55;7.0;7.0;
55686;PMS5003;41911;52.362;4.978;2022-10-16T00:24:28;4.0;4.0;
55686;PMS5003;41911;52.362;4.978;2022-10-16T00:24:59;6.0;6.0;
55686;PMS5003;41911;52.362;4.978;2022-10-16T00:25:30;5.0;5.0;
55686;PMS5003;41911;52.362;4.978;2022-10-16T00:26:02;5.0;5.0;
55686;PMS5003;41911;52.362;4.978;2022-10-16T00:26:37;5.0;5.0;
55686;PMS5003;41911;52.362;4.978;2022-10-16T00:27:08;5.0;5.0;
55686;PMS5003;41911;52.362;4.978;2022-10-16T00:27:39;4.0;4.0;
55686;PMS5003;41911;52.362;4.978;2022-10-16T00:28:10;7.0;6.0;
55686;PMS5003;41911;52.362;4.978;2022-10-16T00:28:45;4.0;4.0;
55686;PMS5003;41911;52.362;4.978;2022-10-16T00:29:16;5.0;5.0;
55686;PMS5003;41911;52.362;4.978;2022-10-16T00:29:49;6.0;6.0;
55686;PMS5003;41911;52.362;4.978;2022-10-16T00:30:20;4.0;4.0;
55686;PMS5003;41911;52.362;4.978;2022-10-16T00:30:51;6.0;5.0;
55686;PMS5003;41911;52.362;4.978;2022-10-16T00:31:22;5.0;3.0;
55686;PMS5003;41911;52.362;4.978;2022-10-16T00:31:54;3.0;3.0;
55686;PMS5003;41911;52.362;4.978;2022-10-16T00:32:25;6.0;6.0;
55686;PMS5003;41911;52.362;4.978;2022-10-16T00:32:56;5.0;5.0;
55686;PMS5003;41911;52.362;4.978;2022-10-16T00:33:27;5.0;5.0;
55686;PMS5003;41911;52.362;4.978;2022-10-16T00:33:58;5.0;5.0;
55686;PMS5003;41911;52.362;4.978;2022-10-16T00:34:29;5.0;4.0;
55686;PMS5003;41911;52.362;4.978;2022-10-16T00:35:00;5.0;5.0;
55686;PMS5003;41911;52.362;4.978;2022-10-16T00:35:32;6.0;6.0;
55686;PMS5003;41911;52.362;4.978;2022-10-16T00:36:04;5.0;5.0;
55686;PMS5003;41911;52.362;4.978;2022-10-16T00:36:35;5.0;5.0;
55686;PMS5003;41911;52.362;4.978;2022-10-16T00:37:06;6.0;5.0;
55686;PMS5003;41911;52.362;4.978;2022-10-16T00:37:37;5.0;5.0;
55686;PMS5003;41911;52.362;4.978;2022-10-16T00:38:08;6.0;5.0;
55686;PMS5003;41911;52.362;4.978;2022-10-16T00:38:39;6.0;5.0;
55686;PMS5003;41911;52.362;4.978;2022-10-16T00:39:13;4.0;4.0;
55686;PMS5003;41911;52.362;4.978;2022-10-16T00:39:44;5.0;5.0;
55686;PMS5003;41911;52.362;4.978;2022-10-16T00:40:15;6.0;6.0;
55686;PMS5003;41911;52.362;4.978;2022-10-16T00:40:46;6.0;6.0;
55686;PMS5003;41911;52.362;4.978;2022-10-16T00:41:17;7.0;6.0;
55686;PMS5003;41911;52.362;4.978;2022-10-16T00:41:48;3.0;3.0;
55686;PMS5003;41911;52.362;4.978;2022-10-16T00:42:19;6.0;5.0;
55686;PMS5003;41911;52.362;4.978;2022-10-16T00:42:50;5.0;4.0;
55686;PMS5003;41911;52.362;4.978;2022-10-16T00:43:39;5.0;4.0;
55686;PMS5003;41911;52.362;4.978;2022-10-16T00:44:50;5.0;5.0;
55686;PMS5003;41911;52.362;4.978;2022-10-16T00:45:22;2.0;2.0;
55686;PMS5003;41911;52.362;4.978;2022-10-16T00:45:53;6.0;5.0;
55686;PMS5003;41911;52.362;4.978;2022-10-16T00:46:25;6.0;5.0;
55686;PMS5003;41911;52.362;4.978;2022-10-16T00:47:00;5.0;5.0;
55686;PMS5003;41911;52.362;4.978;2022-10-16T00:47:32;4.0;4.0;
55686;PMS5003;41911;52.362;4.978;2022-10-16T00:48:07;7.0;6.0;
55686;PMS5003;41911;52.362;4.978;2022-10-16T00:48:45;5.0;5.0;
55686;PMS5003;41911;52.362;4.978;2022-10-16T00:49:18;8.0;7.0;
55686;PMS5003;41911;52.362;4.978;2022-10-16T00:49:51;6.0;5.0;
55686;PMS5003;41911;52.362;4.978;2022-10-16T00:50:31;7.0;6.0;
55686;PMS5003;41911;52.362;4.978;2022-10-16T00:51:03;3.0;3.0;
55686;PMS5003;41911;52.362;4.978;2022-10-16T00:51:37;5.0;5.0;
55686;PMS5003;41911;52.362;4.978;2022-10-16T00:52:10;4.0;4.0;
55686;PMS5003;41911;52.362;4.978;2022-10-16T00:52:44;5.0;5.0;
55686;PMS5003;41911;52.362;4.978;2022-10-16T00:53:18;3.0;3.0;
55686;PMS5003;41911;52.362;4.978;2022-10-16T00:53:49;6.0;5.0;
55686;PMS5003;41911;52.362;4.978;2022-10-16T00:54:22;5.0;5.0;
55686;PMS5003;41911;52.362;4.978;2022-10-16T00:54:55;7.0;7.0;
55686;PMS5003;41911;52.362;4.978;2022-10-16T00:55:27;5.0;5.0;
55686;PMS5003;41911;52.362;4.978;2022-10-16T00:56:28;5.0;5.0;
55686;PMS5003;41911;52.362;4.978;2022-10-16T00:57:00;5.0;5.0;
55686;PMS5003;41911;52.362;4.978;2022-10-16T00:57:33;7.0;6.0;
55686;PMS5003;41911;52.362;4.978;2022-10-16T00:58:05;6.0;5.0;
55686;PMS5003;41911;52.362;4.978;2022-10-16T00:58:36;4.0;4.0;
55686;PMS5003;41911;52.362;4.978;2022-10-16T00:59:38;6.0;4.0;
55686;PMS5003;41911;52.362;4.978;2022-10-16T01:00:11;5.0;5.0;
55686;PMS5003;41911;52.362;4.978;2022-10-16T01:00:46;6.0;4.0;
55686;PMS5003;41911;52.362;4.978;2022-10-16T01:01:17;5.0;5.0;
55686;PMS5003;41911;52.362;4.978;2022-10-16T01:01:48;5.0;4.0;
55686;PMS5003;41911;52.362;4.978;2022-10-16T01:02:21;7.0;6.0;
55686;PMS5003;41911;52.362;4.978;2022-10-16T01:02:53;5.0;5.0;
55686;PMS5003;41911;52.362;4.978;2022-10-16T01:03:26;6.0;6.0;
55686;PMS5003;41911;52.362;4.978;2022-10-16T01:03:59;7.0;6.0;
55686;PMS5003;41911;52.362;4.978;2022-10-16T01:04:31;5.0;5.0;
55686;PMS5003;41911;52.362;4.978;2022-10-16T01:05:05;5.0;4.0;
55686;PMS5003;41911;52.362;4.978;2022-10-16T01:05:37;8.0;6.0;
55686;PMS5003;41911;52.362;4.978;2022-10-16T01:06:22;7.0;5.0;
55686;PMS5003;41911;52.362;4.978;2022-10-16T01:07:02;5.0;5.0;
55686;PMS5003;41911;52.362;4.978;2022-10-16T01:07:43;8.0;7.0;
55686;PMS5003;41911;52.362;4.978;2022-10-16T01:08:26;6.0;5.0;
55686;PMS5003;41911;52.362;4.978;2022-10-16T01:09:09;5.0;5.0;
55686;PMS5003;41911;52.362;4.978;2022-10-16T01:09:51;6.0;6.0;
55686;PMS5003;41911;52.362;4.978;2022-10-16T01:10:30;9.0;6.0;
55686;PMS5003;41911;52.362;4.978;2022-10-16T01:11:14;4.0;4.0;
55686;PMS5003;41911;52.362;4.978;2022-10-16T01:11:55;6.0;5.0;
55686;PMS5003;41911;52.362;4.978;2022-10-16T01:12:39;6.0;6.0;
55686;PMS5003;41911;52.362;4.978;2022-10-16T01:13:15;7.0;6.0;
55686;PMS5003;41911;52.362;4.978;2022-10-16T01:13:55;4.0;4.0;
55686;PMS5003;41911;52.362;4.978;2022-10-16T01:14:36;6.0;6.0;
55686;PMS5003;41911;52.362;4.978;2022-10-16T01:15:14;4.0;4.0;
55686;PMS5003;41911;52.362;4.978;2022-10-16T01:15:56;5.0;4.0;
55686;PMS5003;41911;52.362;4.978;2022-10-16T01:16:37;6.0;6.0;
55686;PMS5003;41911;52.362;4.978;2022-10-16T01:17:16;6.0;5.0;
55686;PMS5003;41911;52.362;4.978;2022-10-16T01:17:56;8.0;7.0;
55686;PMS5003;41911;52.362;4.978;2022-10-16T01:18:34;7.0;6.0;
55686;PMS5003;41911;52.362;4.978;2022-10-16T01:19:12;4.0;4.0;
55686;PMS5003;41911;52.362;4.978;2022-10-16T01:20:02;6.0;6.0;
55686;PMS5003;41911;52.362;4.978;2022-10-16T01:20:40;5.0;4.0;
55686;PMS5003;41911;52.362;4.978;2022-10-16T01:21:20;6.0;6.0;
55686;PMS5003;41911;52.362;4.978;2022-10-16T01:21:59;5.0;5.0;
55686;PMS5003;41911;52.362;4.978;2022-10-16T01:22:34;6.0;6.0;
55686;PMS5003;41911;52.362;4.978;2022-10-16T01:23:19;9.0;6.0;
55686;PMS5003;41911;52.362;4.978;2022-10-16T01:23:59;5.0;5.0;
55686;PMS5003;41911;52.362;4.978;2022-10-16T01:24:39;5.0;5.0;
55686;PMS5003;41911;52.362;4.978;2022-10-16T01:25:18;6.0;5.0;
55686;PMS5003;41911;52.362;4.978;2022-10-16T01:26:07;8.0;8.0;
55686;PMS5003;41911;52.362;4.978;2022-10-16T01:27:01;6.0;5.0;
55686;PMS5003;41911;52.362;4.978;2022-10-16T01:27:36;5.0;4.0;
55686;PMS5003;41911;52.362;4.978;2022-10-16T01:28:11;6.0;5.0;
55686;PMS5003;41911;52.362;4.978;2022-10-16T01:28:45;4.0;4.0;
55686;PMS5003;41911;52.362;4.978;2022-10-16T01:29:23;5.0;4.0;
55686;PMS5003;41911;52.362;4.978;2022-10-16T01:30:04;4.0;4.0;
55686;PMS5003;41911;52.362;4.978;2022-10-16T01:30:44;5.0;4.0;
55686;PMS5003;41911;52.362;4.978;2022-10-16T01:31:17;4.0;3.0;
55686;PMS5003;41911;52.362;4.978;2022-10-16T01:31:53;4.0;3.0;
55686;PMS5003;41911;52.362;4.978;2022-10-16T01:32:30;6.0;5.0;
55686;PMS5003;41911;52.362;4.978;2022-10-16T01:33:10;4.0;4.0;
55686;PMS5003;41911;52.362;4.978;2022-10-16T01:33:57;5.0;4.0;
55686;PMS5003;41911;52.362;4.978;2022-10-16T01:34:37;5.0;5.0;
55686;PMS5003;41911;52.362;4.978;2022-10-16T01:35:13;5.0;5.0;
55686;PMS5003;41911;52.362;4.978;2022-10-16T01:35:50;2.0;2.0;
55686;PMS5003;41911;52.362;4.978;2022-10-16T01:36:30;4.0;4.0;
55686;PMS5003;41911;52.362;4.978;2022-10-16T01:37:09;2.0;2.0;
55686;PMS5003;41911;52.362;4.978;2022-10-16T01:37:46;6.0;5.0;
55686;PMS5003;41911;52.362;4.978;2022-10-16T01:38:25;4.0;4.0;
55686;PMS5003;41911;52.362;4.978;2022-10-16T01:39:01;4.0;4.0;
55686;PMS5003;41911;52.362;4.978;2022-10-16T01:39:33;5.0;4.0;
55686;PMS5003;41911;52.362;4.978;2022-10-16T01:40:10;3.0;3.0;
55686;PMS5003;41911;52.362;4.978;2022-10-16T01:40:47;4.0;4.0;
55686;PMS5003;41911;52.362;4.978;2022-10-16T01:41:24;5.0;4.0;
55686;PMS5003;41911;52.362;4.978;2022-10-16T01:42:04;3.0;2.0;
55686;PMS5003;41911;52.362;4.978;2022-10-16T01:42:39;4.0;4.0;
55686;PMS5003;41911;52.362;4.978;2022-10-16T01:43:14;7.0;4.0;
55686;PMS5003;41911;52.362;4.978;2022-10-16T01:43:53;4.0;4.0;
55686;PMS5003;41911;52.362;4.978;2022-10-16T01:44:31;5.0;4.0;
55686;PMS5003;41911;52.362;4.978;2022-10-16T01:45:04;3.0;3.0;
55686;PMS5003;41911;52.362;4.978;2022-10-16T01:45:37;4.0;4.0;
55686;PMS5003;41911;52.362;4.978;2022-10-16T01:46:13;4.0;3.0;
55686;PMS5003;41911;52.362;4.978;2022-10-16T01:46:50;3.0;3.0;
55686;PMS5003;41911;52.362;4.978;2022-10-16T01:47:25;4.0;3.0;
55686;PMS5003;41911;52.362;4.978;2022-10-16T01:47:57;5.0;4.0;
55686;PMS5003;41911;52.362;4.978;2022-10-16T01:48:30;3.0;3.0;
55686;PMS5003;41911;52.362;4.978;2022-10-16T01:49:03;3.0;3.0;
55686;PMS5003;41911;52.362;4.978;2022-10-16T01:49:36;4.0;4.0;
55686;PMS5003;41911;52.362;4.978;2022-10-16T01:50:12;3.0;3.0;
55686;PMS5003;41911;52.362;4.978;2022-10-16T01:50:49;3.0;3.0;
55686;PMS5003;41911;52.362;4.978;2022-10-16T01:51:24;5.0;3.0;
55686;PMS5003;41911;52.362;4.978;2022-10-16T01:51:56;5.0;5.0;
55686;PMS5003;41911;52.362;4.978;2022-10-16T01:52:34;4.0;4.0;
55686;PMS5003;41911;52.362;4.978;2022-10-16T01:53:10;4.0;4.0;
55686;PMS5003;41911;52.362;4.978;2022-10-16T01:53:46;6.0;4.0;
55686;PMS5003;41911;52.362;4.978;2022-10-16T01:54:20;5.0;4.0;
55686;PMS5003;41911;52.362;4.978;2022-10-16T01:55:03;3.0;3.0;
55686;PMS5003;41911;52.362;4.978;2022-10-16T01:55:36;4.0;4.0;
55686;PMS5003;41911;52.362;4.978;2022-10-16T01:56:12;3.0;3.0;
55686;PMS5003;41911;52.362;4.978;2022-10-16T01:56:48;3.0;3.0;
55686;PMS5003;41911;52.362;4.978;2022-10-16T01:57:21;3.0;3.0;
55686;PMS5003;41911;52.362;4.978;2022-10-16T01:57:55;4.0;4.0;
55686;PMS5003;41911;52.362;4.978;2022-10-16T01:58:29;4.0;4.0;
55686;PMS5003;41911;52.362;4.978;2022-10-16T01:59:06;5.0;5.0;
55686;PMS5003;41911;52.362;4.978;2022-10-16T01:59:42;5.0;5.0;
55686;PMS5003;41911;52.362;4.978;2022-10-16T02:00:16;5.0;4.0;
55686;PMS5003;41911;52.362;4.978;2022-10-16T02:00:49;5.0;5.0;
55686;PMS5003;41911;52.362;4.978;2022-10-16T02:01:23;3.0;3.0;
55686;PMS5003;41911;52.362;4.978;2022-10-16T02:01:58;4.0;3.0;
55686;PMS5003;41911;52.362;4.978;2022-10-16T02:02:36;5.0;5.0;
55686;PMS5003;41911;52.362;4.978;2022-10-16T02:03:09;4.0;4.0;
55686;PMS5003;41911;52.362;4.978;2022-10-16T02:03:44;3.0;3.0;
55686;PMS5003;41911;52.362;4.978;2022-10-16T02:04:21;4.0;4.0;
55686;PMS5003;41911;52.362;4.978;2022-10-16T02:05:00;4.0;3.0;
55686;PMS5003;41911;52.362;4.978;2022-10-16T02:05:40;4.0;4.0;
55686;PMS5003;41911;52.362;4.978;2022-10-16T02:06:15;5.0;3.0;
55686;PMS5003;41911;52.362;4.978;2022-10-16T02:06:46;4.0;4.0;
55686;PMS5003;41911;52.362;4.978;2022-10-16T02:07:17;4.0;4.0;
55686;PMS5003;41911;52.362;4.978;2022-10-16T02:07:48;6.0;5.0;
55686;PMS5003;41911;52.362;4.978;2022-10-16T02:08:19;4.0;4.0;
55686;PMS5003;41911;52.362;4.978;2022-10-16T02:08:53;3.0;3.0;
55686;PMS5003;41911;52.362;4.978;2022-10-16T02:09:24;4.0;3.0;
55686;PMS5003;41911;52.362;4.978;2022-10-16T02:09:55;5.0;4.0;
55686;PMS5003;41911;52.362;4.978;2022-10-16T02:10:27;6.0;6.0;
55686;PMS5003;41911;52.362;4.978;2022-10-16T02:10:58;5.0;5.0;
55686;PMS5003;41911;52.362;4.978;2022-10-16T02:11:31;5.0;4.0;
55686;PMS5003;41911;52.362;4.978;2022-10-16T02:12:03;5.0;4.0;
55686;PMS5003;41911;52.362;4.978;2022-10-16T02:12:43;7.0;5.0;
55686;PMS5003;41911;52.362;4.978;2022-10-16T02:13:22;5.0;5.0;
55686;PMS5003;41911;52.362;4.978;2022-10-16T02:14:00;8.0;7.0;
55686;PMS5003;41911;52.362;4.978;2022-10-16T02:14:35;4.0;4.0;
55686;PMS5003;41911;52.362;4.978;2022-10-16T02:15:09;6.0;6.0;
55686;PMS5003;41911;52.362;4.978;2022-10-16T02:15:40;5.0;5.0;
55686;PMS5003;41911;52.362;4.978;2022-10-16T02:16:12;4.0;4.0;
55686;PMS5003;41911;52.362;4.978;2022-10-16T02:16:44;5.0;5.0;
55686;PMS5003;41911;52.362;4.978;2022-10-16T02:17:16;5.0;5.0;
55686;PMS5003;41911;52.362;4.978;2022-10-16T02:17:48;4.0;4.0;
55686;PMS5003;41911;52.362;4.978;2022-10-16T02:18:19;4.0;4.0;
55686;PMS5003;41911;52.362;4.978;2022-10-16T02:18:50;5.0;5.0;
55686;PMS5003;41911;52.362;4.978;2022-10-16T02:19:21;5.0;5.0;
55686;PMS5003;41911;52.362;4.978;2022-10-16T02:19:54;5.0;5.0;
55686;PMS5003;41911;52.362;4.978;2022-10-16T02:20:27;6.0;6.0;
55686;PMS5003;41911;52.362;4.978;2022-10-16T02:21:04;5.0;4.0;
55686;PMS5003;41911;52.362;4.978;2022-10-16T02:21:44;4.0;4.0;
55686;PMS5003;41911;52.362;4.978;2022-10-16T02:22:21;4.0;4.0;
55686;PMS5003;41911;52.362;4.978;2022-10-16T02:22:59;4.0;4.0;
55686;PMS5003;41911;52.362;4.978;2022-10-16T02:23:35;4.0;4.0;
55686;PMS5003;41911;52.362;4.978;2022-10-16T02:24:15;3.0;3.0;
55686;PMS5003;41911;52.362;4.978;2022-10-16T02:24:55;3.0;3.0;
55686;PMS5003;41911;52.362;4.978;2022-10-16T02:25:34;7.0;6.0;
55686;PMS5003;41911;52.362;4.978;2022-10-16T02:26:13;4.0;4.0;
55686;PMS5003;41911;52.362;4.978;2022-10-16T02:26:56;3.0;3.0;
55686;PMS5003;41911;52.362;4.978;2022-10-16T02:27:36;4.0;4.0;
55686;PMS5003;41911;52.362;4.978;2022-10-16T02:28:13;8.0;6.0;
55686;PMS5003;41911;52.362;4.978;2022-10-16T02:28:52;4.0;4.0;
55686;PMS5003;41911;52.362;4.978;2022-10-16T02:29:30;5.0;5.0;
55686;PMS5003;41911;52.362;4.978;2022-10-16T02:30:05;3.0;2.0;
55686;PMS5003;41911;52.362;4.978;2022-10-16T02:30:44;5.0;5.0;
55686;PMS5003;41911;52.362;4.978;2022-10-16T02:31:22;6.0;5.0;
55686;PMS5003;41911;52.362;4.978;2022-10-16T02:31:58;6.0;6.0;
55686;PMS5003;41911;52.362;4.978;2022-10-16T02:32:31;6.0;5.0;
55686;PMS5003;41911;52.362;4.978;2022-10-16T02:33:05;5.0;4.0;
55686;PMS5003;41911;52.362;4.978;2022-10-16T02:33:40;4.0;4.0;
55686;PMS5003;41911;52.362;4.978;2022-10-16T02:34:13;4.0;4.0;
55686;PMS5003;41911;52.362;4.978;2022-10-16T02:34:46;4.0;4.0;
55686;PMS5003;41911;52.362;4.978;2022-10-16T02:35:19;3.0;3.0;
55686;PMS5003;41911;52.362;4.978;2022-10-16T02:35:52;4.0;4.0;
55686;PMS5003;41911;52.362;4.978;2022-10-16T02:36:24;4.0;4.0;
55686;PMS5003;41911;52.362;4.978;2022-10-16T02:36:56;4.0;3.0;
55686;PMS5003;41911;52.362;4.978;2022-10-16T02:37:30;4.0;3.0;
55686;PMS5003;41911;52.362;4.978;2022-10-16T02:38:02;4.0;4.0;
55686;PMS5003;41911;52.362;4.978;2022-10-16T02:38:34;5.0;4.0;
55686;PMS5003;41911;52.362;4.978;2022-10-16T02:39:06;4.0;4.0;
55686;PMS5003;41911;52.362;4.978;2022-10-16T02:39:38;3.0;3.0;
55686;PMS5003;41911;52.362;4.978;2022-10-16T02:40:11;6.0;4.0;
55686;PMS5003;41911;52.362;4.978;2022-10-16T02:40:42;4.0;3.0;
55686;PMS5003;41911;52.362;4.978;2022-10-16T02:41:13;4.0;4.0;
55686;PMS5003;41911;52.362;4.978;2022-10-16T02:41:45;6.0;6.0;
55686;PMS5003;41911;52.362;4.978;2022-10-16T02:42:18;4.0;4.0;
55686;PMS5003;41911;52.362;4.978;2022-10-16T02:42:49;5.0;4.0;
55686;PMS5003;41911;52.362;4.978;2022-10-16T02:43:21;6.0;6.0;
55686;PMS5003;41911;52.362;4.978;2022-10-16T02:43:52;4.0;4.0;
55686;PMS5003;41911;52.362;4.978;2022-10-16T02:44:23;5.0;5.0;
55686;PMS5003;41911;52.362;4.978;2022-10-16T02:44:54;3.0;2.0;
55686;PMS5003;41911;52.362;4.978;2022-10-16T02:45:25;4.0;3.0;
55686;PMS5003;41911;52.362;4.978;2022-10-16T02:45:56;2.0;2.0;
55686;PMS5003;41911;52.362;4.978;2022-10-16T02:46:28;3.0;3.0;
55686;PMS5003;41911;52.362;4.978;2022-10-16T02:46:59;6.0;5.0;
55686;PMS5003;41911;52.362;4.978;2022-10-16T02:47:30;4.0;3.0;
55686;PMS5003;41911;52.362;4.978;2022-10-16T02:48:01;4.0;4.0;
55686;PMS5003;41911;52.362;4.978;2022-10-16T02:48:32;6.0;5.0;
55686;PMS5003;41911;52.362;4.978;2022-10-16T02:49:03;5.0;5.0;
55686;PMS5003;41911;52.362;4.978;2022-10-16T02:49:34;6.0;5.0;
55686;PMS5003;41911;52.362;4.978;2022-10-16T02:50:06;3.0;3.0;
55686;PMS5003;41911;52.362;4.978;2022-10-16T02:50:37;5.0;5.0;
55686;PMS5003;41911;52.362;4.978;2022-10-16T02:51:08;5.0;5.0;
55686;PMS5003;41911;52.362;4.978;2022-10-16T02:51:39;5.0;5.0;
55686;PMS5003;41911;52.362;4.978;2022-10-16T02:52:10;5.0;5.0;
55686;PMS5003;41911;52.362;4.978;2022-10-16T02:52:41;5.0;5.0;
55686;PMS5003;41911;52.362;4.978;2022-10-16T02:53:13;5.0;5.0;
55686;PMS5003;41911;52.362;4.978;2022-10-16T02:53:44;6.0;4.0;
55686;PMS5003;41911;52.362;4.978;2022-10-16T02:54:15;6.0;5.0;
55686;PMS5003;41911;52.362;4.978;2022-10-16T02:54:46;5.0;5.0;
55686;PMS5003;41911;52.362;4.978;2022-10-16T02:55:17;4.0;4.0;
55686;PMS5003;41911;52.362;4.978;2022-10-16T02:55:49;6.0;5.0;
55686;PMS5003;41911;52.362;4.978;2022-10-16T02:56:20;6.0;6.0;
55686;PMS5003;41911;52.362;4.978;2022-10-16T02:56:52;6.0;5.0;
55686;PMS5003;41911;52.362;4.978;2022-10-16T02:57:23;5.0;5.0;
55686;PMS5003;41911;52.362;4.978;2022-10-16T02:57:54;6.0;5.0;
55686;PMS5003;41911;52.362;4.978;2022-10-16T02:58:26;6.0;6.0;
55686;PMS5003;41911;52.362;4.978;2022-10-16T02:58:57;5.0;5.0;
55686;PMS5003;41911;52.362;4.978;2022-10-16T02:59:28;6.0;6.0;
55686;PMS5003;41911;52.362;4.978;2022-10-16T03:00:00;5.0;5.0;
55686;PMS5003;41911;52.362;4.978;2022-10-16T03:00:31;7.0;7.0;
55686;PMS5003;41911;52.362;4.978;2022-10-16T03:01:02;6.0;6.0;
55686;PMS5003;41911;52.362;4.978;2022-10-16T03:01:33;6.0;6.0;
55686;PMS5003;41911;52.362;4.978;2022-10-16T03:02:04;5.0;5.0;
55686;PMS5003;41911;52.362;4.978;2022-10-16T03:02:35;7.0;7.0;
55686;PMS5003;41911;52.362;4.978;2022-10-16T03:03:06;7.0;7.0;
55686;PMS5003;41911;52.362;4.978;2022-10-16T03:03:37;5.0;5.0;
55686;PMS5003;41911;52.362;4.978;2022-10-16T03:04:08;7.0;5.0;
55686;PMS5003;41911;52.362;4.978;2022-10-16T03:04:39;7.0;6.0;
55686;PMS5003;41911;52.362;4.978;2022-10-16T03:05:10;5.0;5.0;
55686;PMS5003;41911;52.362;4.978;2022-10-16T03:05:42;7.0;6.0;
55686;PMS5003;41911;52.362;4.978;2022-10-16T03:06:13;9.0;7.0;
55686;PMS5003;41911;52.362;4.978;2022-10-16T03:06:44;6.0;6.0;
55686;PMS5003;41911;52.362;4.978;2022-10-16T03:07:15;6.0;6.0;
55686;PMS5003;41911;52.362;4.978;2022-10-16T03:07:46;8.0;7.0;
55686;PMS5003;41911;52.362;4.978;2022-10-16T03:08:17;7.0;7.0;
55686;PMS5003;41911;52.362;4.978;2022-10-16T03:08:48;6.0;6.0;
55686;PMS5003;41911;52.362;4.978;2022-10-16T03:09:19;9.0;8.0;
55686;PMS5003;41911;52.362;4.978;2022-10-16T03:09:50;6.0;6.0;
55686;PMS5003;41911;52.362;4.978;2022-10-16T03:10:21;9.0;9.0;
55686;PMS5003;41911;52.362;4.978;2022-10-16T03:10:52;8.0;8.0;
55686;PMS5003;41911;52.362;4.978;2022-10-16T03:11:23;7.0;7.0;
55686;PMS5003;41911;52.362;4.978;2022-10-16T03:11:54;8.0;7.0;
55686;PMS5003;41911;52.362;4.978;2022-10-16T03:12:25;8.0;8.0;
55686;PMS5003;41911;52.362;4.978;2022-10-16T03:12:56;7.0;7.0;
55686;PMS5003;41911;52.362;4.978;2022-10-16T03:13:27;9.0;9.0;
55686;PMS5003;41911;52.362;4.978;2022-10-16T03:13:58;8.0;8.0;
55686;PMS5003;41911;52.362;4.978;2022-10-16T03:14:29;9.0;7.0;
55686;PMS5003;41911;52.362;4.978;2022-10-16T03:15:00;10.0;9.0;
55686;PMS5003;41911;52.362;4.978;2022-10-16T03:15:31;6.0;6.0;
55686;PMS5003;41911;52.362;4.978;2022-10-16T03:16:02;9.0;8.0;
55686;PMS5003;41911;52.362;4.978;2022-10-16T03:16:34;7.0;7.0;
55686;PMS5003;41911;52.362;4.978;2022-10-16T03:17:05;9.0;7.0;
55686;PMS5003;41911;52.362;4.978;2022-10-16T03:17:36;9.0;8.0;
55686;PMS5003;41911;52.362;4.978;2022-10-16T03:18:07;9.0;8.0;
55686;PMS5003;41911;52.362;4.978;2022-10-16T03:18:38;8.0;8.0;
55686;PMS5003;41911;52.362;4.978;2022-10-16T03:19:09;10.0;9.0;
55686;PMS5003;41911;52.362;4.978;2022-10-16T03:19:40;8.0;8.0;
55686;PMS5003;41911;52.362;4.978;2022-10-16T03:20:11;9.0;8.0;
55686;PMS5003;41911;52.362;4.978;2022-10-16T03:20:42;8.0;8.0;
55686;PMS5003;41911;52.362;4.978;2022-10-16T03:21:13;8.0;7.0;
55686;PMS5003;41911;52.362;4.978;2022-10-16T03:21:44;8.0;8.0;
55686;PMS5003;41911;52.362;4.978;2022-10-16T03:22:16;9.0;8.0;
55686;PMS5003;41911;52.362;4.978;2022-10-16T03:22:47;7.0;7.0;
55686;PMS5003;41911;52.362;4.978;2022-10-16T03:23:18;9.0;8.0;
55686;PMS5003;41911;52.362;4.978;2022-10-16T03:23:49;9.0;8.0;
55686;PMS5003;41911;52.362;4.978;2022-10-16T03:24:20;9.0;9.0;
55686;PMS5003;41911;52.362;4.978;2022-10-16T03:24:51;11.0;10.0;
55686;PMS5003;41911;52.362;4.978;2022-10-16T03:25:22;9.0;8.0;
55686;PMS5003;41911;52.362;4.978;2022-10-16T03:25:53;9.0;9.0;
55686;PMS5003;41911;52.362;4.978;2022-10-16T03:26:24;9.0;8.0;
55686;PMS5003;41911;52.362;4.978;2022-10-16T03:26:55;8.0;8.0;
55686;PMS5003;41911;52.362;4.978;2022-10-16T03:27:26;8.0;8.0;
55686;PMS5003;41911;52.362;4.978;2022-10-16T03:27:58;9.0;9.0;
55686;PMS5003;41911;52.362;4.978;2022-10-16T03:28:29;10.0;9.0;
55686;PMS5003;41911;52.362;4.978;2022-10-16T03:29:00;7.0;7.0;
55686;PMS5003;41911;52.362;4.978;2022-10-16T03:29:31;9.0;9.0;
55686;PMS5003;41911;52.362;4.978;2022-10-16T03:30:03;11.0;8.0;
55686;PMS5003;41911;52.362;4.978;2022-10-16T03:30:34;9.0;9.0;
55686;PMS5003;41911;52.362;4.978;2022-10-16T03:31:05;11.0;10.0;
55686;PMS5003;41911;52.362;4.978;2022-10-16T03:31:36;8.0;8.0;
55686;PMS5003;41911;52.362;4.978;2022-10-16T03:32:07;10.0;9.0;
55686;PMS5003;41911;52.362;4.978;2022-10-16T03:32:38;8.0;8.0;
55686;PMS5003;41911;52.362;4.978;2022-10-16T03:33:09;8.0;8.0;
55686;PMS5003;41911;52.362;4.978;2022-10-16T03:33:40;7.0;7.0;
55686;PMS5003;41911;52.362;4.978;2022-10-16T03:34:11;7.0;7.0;
55686;PMS5003;41911;52.362;4.978;2022-10-16T03:34:42;9.0;9.0;
55686;PMS5003;41911;52.362;4.978;2022-10-16T03:35:13;10.0;8.0;
55686;PMS5003;41911;52.362;4.978;2022-10-16T03:35:50;9.0;8.0;
55686;PMS5003;41911;52.362;4.978;2022-10-16T03:36:21;9.0;8.0;
55686;PMS5003;41911;52.362;4.978;2022-10-16T03:36:54;7.0;7.0;
55686;PMS5003;41911;52.362;4.978;2022-10-16T03:37:25;8.0;8.0;
55686;PMS5003;41911;52.362;4.978;2022-10-16T03:37:58;7.0;7.0;